sensor_id;sensor_type;location;lat;lon;timestamp;pressure;altitude;pressure_sealevel;temperature;humidity
6343;BME280;3204;42.698;23.298;2023-01-31T00:00:11;94455.84;;;1.80;72.59
6343;BME280;3204;42.698;23.298;2023-01-31T00:02:36;94470.00;;;1.76;72.81
6343;BME280;3204;42.698;23.298;2023-01-31T00:05:02;94470.00;;;1.76;72.51
6343;BME280;3204;42.698;23.298;2023-01-31T00:07:27;94479.09;;;1.70;72.42
6343;BME280;3204;42.698;23.298;2023-01-31T00:09:53;94470.00;;;1.71;72.50
6343;BME280;3204;42.698;23.298;2023-01-31T00:12:18;94465.72;;;1.60;72.94
6343;BME280;3204;42.698;23.298;2023-01-31T00:14:44;94457.16;;;1.53;72.93
6343;BME280;3204;42.698;23.298;2023-01-31T00:17:09;94460.63;;;1.53;73.60
6343;BME280;3204;42.698;23.298;2023-01-31T00:19:34;94458.19;;;1.37;73.81
6343;BME280;3204;42.698;23.298;2023-01-31T00:22:00;94466.22;;;1.47;73.31
6343;BME280;3204;42.698;23.298;2023-01-31T00:24:26;94454.16;;;1.24;74.46
6343;BME280;3204;42.698;23.298;2023-01-31T00:26:51;94455.53;;;1.32;74.39
6343;BME280;3204;42.698;23.298;2023-01-31T00:29:25;94461.13;;;1.30;74.51
6343;BME280;3204;42.698;23.298;2023-01-31T00:31:51;94455.75;;;1.25;74.37
6343;BME280;3204;42.698;23.298;2023-01-31T00:34:17;94454.97;;;1.35;74.73
6343;BME280;3204;42.698;23.298;2023-01-31T00:36:42;94456.63;;;1.41;74.33
6343;BME280;3204;42.698;23.298;2023-01-31T00:39:08;94456.59;;;1.31;75.42
6343;BME280;3204;42.698;23.298;2023-01-31T00:41:36;94459.22;;;1.21;75.54
6343;BME280;3204;42.698;23.298;2023-01-31T00:44:02;94458.97;;;1.27;75.13
6343;BME280;3204;42.698;23.298;2023-01-31T00:46:28;94465.16;;;1.43;75.23
6343;BME280;3204;42.698;23.298;2023-01-31T00:48:54;94466.22;;;1.47;74.59
6343;BME280;3204;42.698;23.298;2023-01-31T00:51:21;94450.97;;;1.32;75.40
6343;BME280;3204;42.698;23.298;2023-01-31T00:53:47;94448.84;;;1.34;75.75
6343;BME280;3204;42.698;23.298;2023-01-31T00:56:15;94437.63;;;1.37;75.75
6343;BME280;3204;42.698;23.298;2023-01-31T00:58:41;94448.88;;;1.44;75.70
6343;BME280;3204;42.698;23.298;2023-01-31T01:01:08;94447.53;;;1.47;75.16
6343;BME280;3204;42.698;23.298;2023-01-31T01:03:34;94451.81;;;1.58;75.37
6343;BME280;3204;42.698;23.298;2023-01-31T01:06:00;94467.59;;;1.59;74.61
6343;BME280;3204;42.698;23.298;2023-01-31T01:08:27;94460.63;;;1.53;74.52
6343;BME280;3204;42.698;23.298;2023-01-31T01:10:53;94460.91;;;1.57;75.23
6343;BME280;3204;42.698;23.298;2023-01-31T01:13:18;94473.19;;;1.58;74.86
6343;BME280;3204;42.698;23.298;2023-01-31T01:15:44;94467.06;;;1.57;74.04
6343;BME280;3204;42.698;23.298;2023-01-31T01:18:09;94465.44;;;1.56;74.42
6343;BME280;3204;42.698;23.298;2023-01-31T01:20:35;94466.50;;;1.55;74.17
6343;BME280;3204;42.698;23.298;2023-01-31T01:23:01;94465.69;;;1.45;74.76
6343;BME280;3204;42.698;23.298;2023-01-31T01:25:26;94471.03;;;1.45;74.39
6343;BME280;3204;42.698;23.298;2023-01-31T01:27:52;94453.41;;;1.59;74.01
6343;BME280;3204;42.698;23.298;2023-01-31T01:30:18;94451.28;;;1.56;74.15
6343;BME280;3204;42.698;23.298;2023-01-31T01:32:45;94449.94;;;1.53;74.53
6343;BME280;3204;42.698;23.298;2023-01-31T01:35:11;94450.47;;;1.55;74.45
6343;BME280;3204;42.698;23.298;2023-01-31T01:37:37;94448.88;;;1.69;73.73
6343;BME280;3204;42.698;23.298;2023-01-31T01:40:02;94450.78;;;1.74;73.29
6343;BME280;3204;42.698;23.298;2023-01-31T01:42:33;94452.91;;;1.77;72.41
6343;BME280;3204;42.698;23.298;2023-01-31T01:45:00;94451.31;;;1.81;72.17
6343;BME280;3204;42.698;23.298;2023-01-31T01:47:49;94468.69;;;1.98;71.99
6343;BME280;3204;42.698;23.298;2023-01-31T01:50:27;94457.47;;;1.81;71.71
6343;BME280;3204;42.698;23.298;2023-01-31T01:53:02;94458.78;;;1.74;71.35
6343;BME280;3204;42.698;23.298;2023-01-31T01:55:41;94462.81;;;1.71;71.87
6343;BME280;3204;42.698;23.298;2023-01-31T01:58:15;94467.91;;;1.88;70.50
6343;BME280;3204;42.698;23.298;2023-01-31T02:00:43;94462.81;;;1.86;69.63
6343;BME280;3204;42.698;23.298;2023-01-31T02:03:10;94457.97;;;1.88;68.82
6343;BME280;3204;42.698;23.298;2023-01-31T02:05:41;94466.81;;;1.84;69.62
6343;BME280;3204;42.698;23.298;2023-01-31T02:08:08;94465.19;;;1.83;68.99
6343;BME280;3204;42.698;23.298;2023-01-31T02:11:22;94478.84;;;1.86;68.92
6343;BME280;3204;42.698;23.298;2023-01-31T02:13:46;94479.38;;;1.98;68.18
6343;BME280;3204;42.698;23.298;2023-01-31T02:16:14;94479.91;;;2.05;66.67
6343;BME280;3204;42.698;23.298;2023-01-31T02:18:39;94478.31;;;2.04;67.30
6343;BME280;3204;42.698;23.298;2023-01-31T02:35:20;94490.63;;;2.15;66.74
6343;BME280;3204;42.698;23.298;2023-01-31T02:43:34;94487.13;;;2.25;64.70
6343;BME280;3204;42.698;23.298;2023-01-31T02:46:08;94483.94;;;2.18;65.89
6343;BME280;3204;42.698;23.298;2023-01-31T02:48:54;94494.38;;;2.19;65.24
6343;BME280;3204;42.698;23.298;2023-01-31T02:51:30;94491.41;;;2.16;65.41
6343;BME280;3204;42.698;23.298;2023-01-31T02:54:04;94508.78;;;2.13;65.83
6343;BME280;3204;42.698;23.298;2023-01-31T02:56:35;94513.34;;;2.18;66.50
6343;BME280;3204;42.698;23.298;2023-01-31T02:59:08;94511.19;;;2.25;65.73
6343;BME280;3204;42.698;23.298;2023-01-31T03:01:39;94518.44;;;2.24;66.74
6343;BME280;3204;42.698;23.298;2023-01-31T03:04:08;94525.38;;;2.25;66.69
6343;BME280;3204;42.698;23.298;2023-01-31T03:20:02;94548.63;;;2.15;67.54
6343;BME280;3204;42.698;23.298;2023-01-31T03:22:36;94555.59;;;2.11;67.70
6343;BME280;3204;42.698;23.298;2023-01-31T03:25:03;94541.69;;;2.24;66.72
6343;BME280;3204;42.698;23.298;2023-01-31T03:27:31;94552.38;;;2.19;67.92
6343;BME280;3204;42.698;23.298;2023-01-31T03:30:03;94561.75;;;2.11;68.04
6343;BME280;3204;42.698;23.298;2023-01-31T03:32:34;94564.94;;;2.08;68.42
6343;BME280;3204;42.698;23.298;2023-01-31T03:35:00;94563.34;;;2.12;69.08
6343;BME280;3204;42.698;23.298;2023-01-31T03:37:36;94575.94;;;2.27;68.32
6343;BME280;3204;42.698;23.298;2023-01-31T03:40:15;94573.78;;;2.14;68.71
6343;BME280;3204;42.698;23.298;2023-01-31T03:42:50;94573.53;;;2.20;68.99
6343;BME280;3204;42.698;23.298;2023-01-31T03:45:36;94585.56;;;2.33;68.44
6343;BME280;3204;42.698;23.298;2023-01-31T03:48:04;94595.69;;;2.16;69.34
6343;BME280;3204;42.698;23.298;2023-01-31T03:50:40;94581.81;;;2.19;70.04
6343;BME280;3204;42.698;23.298;2023-01-31T03:55:59;94590.91;;;2.13;70.17
6343;BME280;3204;42.698;23.298;2023-01-31T03:58:28;94579.66;;;2.11;70.64
6343;BME280;3204;42.698;23.298;2023-01-31T04:00:58;94587.41;;;2.17;70.58
6343;BME280;3204;42.698;23.298;2023-01-31T04:03:40;94582.31;;;2.16;71.24
6343;BME280;3204;42.698;23.298;2023-01-31T04:06:07;94581.00;;;2.13;71.43
6343;BME280;3204;42.698;23.298;2023-01-31T04:08:34;94575.66;;;2.18;71.87
6343;BME280;3204;42.698;23.298;2023-01-31T04:11:04;94586.91;;;2.15;72.06
6343;BME280;3204;42.698;23.298;2023-01-31T04:13:30;94583.41;;;2.10;72.32
6343;BME280;3204;42.698;23.298;2023-01-31T04:15:55;94579.66;;;2.11;72.73
6343;BME280;3204;42.698;23.298;2023-01-31T04:18:21;94581.28;;;2.12;72.60
6343;BME280;3204;42.698;23.298;2023-01-31T04:20:46;94580.44;;;2.01;73.53
6343;BME280;3204;42.698;23.298;2023-01-31T04:23:12;94568.97;;;2.16;73.84
6343;BME280;3204;42.698;23.298;2023-01-31T04:25:38;94585.03;;;2.21;74.12
6343;BME280;3204;42.698;23.298;2023-01-31T04:28:03;94576.97;;;2.06;74.75
6343;BME280;3204;42.698;23.298;2023-01-31T04:30:29;94574.00;;;1.82;75.33
6343;BME280;3204;42.698;23.298;2023-01-31T04:32:54;94575.63;;;2.03;75.49
6343;BME280;3204;42.698;23.298;2023-01-31T04:35:20;94589.78;;;1.84;76.64
6343;BME280;3204;42.698;23.298;2023-01-31T04:37:45;94590.31;;;1.86;76.08
6343;BME280;3204;42.698;23.298;2023-01-31T04:40:11;94591.09;;;1.71;77.27
6343;BME280;3204;42.698;23.298;2023-01-31T04:42:38;94591.09;;;1.71;76.94
6343;BME280;3204;42.698;23.298;2023-01-31T04:45:04;94597.25;;;1.87;77.12
6343;BME280;3204;42.698;23.298;2023-01-31T04:47:30;94605.00;;;1.83;76.86
6343;BME280;3204;42.698;23.298;2023-01-31T04:49:55;94607.44;;;1.95;77.20
6343;BME280;3204;42.698;23.298;2023-01-31T04:52:20;94614.34;;;1.81;77.83
6343;BME280;3204;42.698;23.298;2023-01-31T04:54:48;94604.13;;;1.63;78.10
6343;BME280;3204;42.698;23.298;2023-01-31T04:57:14;94598.25;;;1.61;78.48
6343;BME280;3204;42.698;23.298;2023-01-31T04:59:39;94607.34;;;1.60;78.89
6343;BME280;3204;42.698;23.298;2023-01-31T05:02:05;94600.47;;;1.79;78.73
6343;BME280;3204;42.698;23.298;2023-01-31T05:04:30;94613.81;;;1.79;78.85
6343;BME280;3204;42.698;23.298;2023-01-31T05:06:56;94609.50;;;1.73;79.63
6343;BME280;3204;42.698;23.298;2023-01-31T05:09:21;94611.63;;;1.61;79.56
6343;BME280;3204;42.698;23.298;2023-01-31T05:11:47;94616.47;;;1.74;79.78
6343;BME280;3204;42.698;23.298;2023-01-31T05:14:13;94615.91;;;1.72;79.59
6343;BME280;3204;42.698;23.298;2023-01-31T05:16:39;94610.56;;;1.67;79.65
6343;BME280;3204;42.698;23.298;2023-01-31T05:19:05;94608.47;;;1.79;79.03
6343;BME280;3204;42.698;23.298;2023-01-31T05:21:31;94612.47;;;1.76;79.07
6343;BME280;3204;42.698;23.298;2023-01-31T05:24:16;94610.63;;;1.92;78.01
6343;BME280;3204;42.698;23.298;2023-01-31T05:26:42;94613.28;;;1.82;78.26
6343;BME280;3204;42.698;23.298;2023-01-31T05:29:07;94606.59;;;1.84;79.05
6343;BME280;3204;42.698;23.298;2023-01-31T05:31:33;94615.97;;;1.87;78.55
6343;BME280;3204;42.698;23.298;2023-01-31T05:33:58;94615.47;;;1.95;78.28
6343;BME280;3204;42.698;23.298;2023-01-31T05:36:24;94615.97;;;1.92;78.14
6343;BME280;3204;42.698;23.298;2023-01-31T05:38:49;94617.03;;;1.81;78.60
6343;BME280;3204;42.698;23.298;2023-01-31T05:41:15;94612.19;;;1.73;79.60
6343;BME280;3204;42.698;23.298;2023-01-31T05:43:40;94625.56;;;1.78;79.01
6343;BME280;3204;42.698;23.298;2023-01-31T05:46:06;94623.94;;;1.77;79.87
6343;BME280;3204;42.698;23.298;2023-01-31T05:48:31;94634.16;;;1.85;79.19
6343;BME280;3204;42.698;23.298;2023-01-31T05:50:57;94635.00;;;2.00;78.46
6343;BME280;3204;42.698;23.298;2023-01-31T05:53:23;94637.41;;;2.02;78.10
6343;BME280;3204;42.698;23.298;2023-01-31T05:55:49;94640.03;;;1.92;78.63
6343;BME280;3204;42.698;23.298;2023-01-31T05:58:15;94637.38;;;1.97;77.86
6343;BME280;3204;42.698;23.298;2023-01-31T06:00:40;94642.72;;;1.97;78.13
6343;BME280;3204;42.698;23.298;2023-01-31T06:03:07;94644.34;;;1.93;79.00
6343;BME280;3204;42.698;23.298;2023-01-31T06:05:32;94637.66;;;1.95;79.31
6343;BME280;3204;42.698;23.298;2023-01-31T06:07:58;94639.53;;;2.00;78.59
6343;BME280;3204;42.698;23.298;2023-01-31T06:10:23;94643.03;;;2.05;78.82
6343;BME280;3204;42.698;23.298;2023-01-31T06:12:48;94647.03;;;2.03;79.48
6343;BME280;3204;42.698;23.298;2023-01-31T06:15:14;94636.88;;;2.15;78.94
6343;BME280;3204;42.698;23.298;2023-01-31T06:17:40;94642.50;;;2.13;78.64
6343;BME280;3204;42.698;23.298;2023-01-31T06:20:06;94639.56;;;2.15;79.03
6343;BME280;3204;42.698;23.298;2023-01-31T06:22:31;94650.25;;;2.15;79.17
6343;BME280;3204;42.698;23.298;2023-01-31T06:24:57;94656.69;;;2.19;79.00
6343;BME280;3204;42.698;23.298;2023-01-31T06:27:23;94654.03;;;2.29;78.47
6343;BME280;3204;42.698;23.298;2023-01-31T06:29:48;94649.50;;;2.29;79.09
6343;BME280;3204;42.698;23.298;2023-01-31T06:32:14;94641.50;;;2.39;78.61
6343;BME280;3204;42.698;23.298;2023-01-31T06:34:39;94640.66;;;2.24;79.19
6343;BME280;3204;42.698;23.298;2023-01-31T06:37:08;94641.22;;;2.36;78.69
6343;BME280;3204;42.698;23.298;2023-01-31T06:39:34;94647.66;;;2.40;79.39
6343;BME280;3204;42.698;23.298;2023-01-31T06:41:59;94649.78;;;2.38;79.17
6343;BME280;3204;42.698;23.298;2023-01-31T06:44:25;94642.84;;;2.42;79.72
6343;BME280;3204;42.698;23.298;2023-01-31T06:46:50;94653.53;;;2.37;78.95
6343;BME280;3204;42.698;23.298;2023-01-31T06:49:16;94647.66;;;2.40;78.67
6343;BME280;3204;42.698;23.298;2023-01-31T06:51:41;94658.38;;;2.40;79.54
6343;BME280;3204;42.698;23.298;2023-01-31T06:54:07;94663.16;;;2.38;79.36
6343;BME280;3204;42.698;23.298;2023-01-31T06:56:32;94665.84;;;2.48;79.76
6343;BME280;3204;42.698;23.298;2023-01-31T06:58:57;94656.78;;;2.59;79.00
6343;BME280;3204;42.698;23.298;2023-01-31T07:01:23;94658.09;;;2.51;79.32
6343;BME280;3204;42.698;23.298;2023-01-31T07:03:50;94667.19;;;2.70;78.54
6343;BME280;3204;42.698;23.298;2023-01-31T07:06:16;94668.53;;;2.63;78.47
6343;BME280;3204;42.698;23.298;2023-01-31T07:08:45;94668.28;;;2.79;78.58
6343;BME280;3204;42.698;23.298;2023-01-31T07:11:10;94674.72;;;2.73;77.70
6343;BME280;3204;42.698;23.298;2023-01-31T07:13:36;94674.44;;;2.70;78.21
6343;BME280;3204;42.698;23.298;2023-01-31T07:16:01;94671.78;;;2.65;78.11
6343;BME280;3204;42.698;23.298;2023-01-31T07:18:26;94674.44;;;2.75;77.30
6343;BME280;3204;42.698;23.298;2023-01-31T07:20:52;94675.25;;;2.80;78.08
6343;BME280;3204;42.698;23.298;2023-01-31T07:23:18;94675.25;;;2.85;77.39
6343;BME280;3204;42.698;23.298;2023-01-31T07:25:43;94677.66;;;2.82;77.68
6343;BME280;3204;42.698;23.298;2023-01-31T07:28:10;94686.75;;;2.81;78.06
6343;BME280;3204;42.698;23.298;2023-01-31T07:30:36;94677.13;;;2.95;77.66
6343;BME280;3204;42.698;23.298;2023-01-31T07:33:01;94670.69;;;2.81;77.44
6343;BME280;3204;42.698;23.298;2023-01-31T07:35:27;94673.63;;;2.79;78.55
6343;BME280;3204;42.698;23.298;2023-01-31T07:37:53;94672.84;;;2.84;78.09
6343;BME280;3204;42.698;23.298;2023-01-31T07:40:19;94671.50;;;2.91;78.99
6343;BME280;3204;42.698;23.298;2023-01-31T07:42:44;94674.19;;;3.01;78.68
6343;BME280;3204;42.698;23.298;2023-01-31T07:45:11;94681.97;;;2.93;77.73
6343;BME280;3204;42.698;23.298;2023-01-31T07:47:38;94688.38;;;2.97;78.72
6343;BME280;3204;42.698;23.298;2023-01-31T07:50:04;94680.63;;;3.05;78.74
6343;BME280;3204;42.698;23.298;2023-01-31T07:52:30;94675.00;;;3.07;77.66
6343;BME280;3204;42.698;23.298;2023-01-31T07:54:56;94683.00;;;3.22;77.96
6343;BME280;3204;42.698;23.298;2023-01-31T07:57:21;94683.53;;;3.24;78.09
6343;BME280;3204;42.698;23.298;2023-01-31T07:59:47;94683.78;;;3.22;77.31
6343;BME280;3204;42.698;23.298;2023-01-31T08:02:13;94684.34;;;3.14;78.89
6343;BME280;3204;42.698;23.298;2023-01-31T08:04:57;94689.44;;;3.11;78.85
6343;BME280;3204;42.698;23.298;2023-01-31T08:07:23;94681.94;;;3.18;79.13
6343;BME280;3204;42.698;23.298;2023-01-31T08:09:49;94685.66;;;3.37;77.81
6343;BME280;3204;42.698;23.298;2023-01-31T08:12:15;94679.22;;;3.38;78.51
6343;BME280;3204;42.698;23.298;2023-01-31T08:14:40;94685.66;;;3.37;78.11
6343;BME280;3204;42.698;23.298;2023-01-31T08:17:06;94686.19;;;3.39;78.99
6343;BME280;3204;42.698;23.298;2023-01-31T08:19:33;94689.66;;;3.49;78.91
6343;BME280;3204;42.698;23.298;2023-01-31T08:21:59;94676.22;;;3.64;77.87
6343;BME280;3204;42.698;23.298;2023-01-31T08:24:24;94671.56;;;3.95;76.96
6343;BME280;3204;42.698;23.298;2023-01-31T08:26:50;94674.16;;;4.10;76.88
6343;BME280;3204;42.698;23.298;2023-01-31T08:29:16;94673.53;;;4.28;76.31
6343;BME280;3204;42.698;23.298;2023-01-31T08:31:42;94671.06;;;4.36;75.54
6343;BME280;3204;42.698;23.298;2023-01-31T08:34:07;94673.72;;;4.46;75.70
6343;BME280;3204;42.698;23.298;2023-01-31T08:36:33;94686.25;;;4.61;74.74
6343;BME280;3204;42.698;23.298;2023-01-31T08:39:00;94678.16;;;4.66;74.02
6343;BME280;3204;42.698;23.298;2023-01-31T08:41:27;94678.66;;;4.73;72.97
6343;BME280;3204;42.698;23.298;2023-01-31T08:43:53;94678.69;;;4.68;73.89
6343;BME280;3204;42.698;23.298;2023-01-31T08:46:20;94682.41;;;4.72;72.84
6343;BME280;3204;42.698;23.298;2023-01-31T08:48:46;94682.38;;;4.82;72.71
6343;BME280;3204;42.698;23.298;2023-01-31T08:51:12;94687.72;;;4.82;73.41
6343;BME280;3204;42.698;23.298;2023-01-31T08:53:39;94685.56;;;4.84;73.21
6343;BME280;3204;42.698;23.298;2023-01-31T08:56:06;94683.94;;;4.88;73.49
6343;BME280;3204;42.698;23.298;2023-01-31T08:58:33;94668.03;;;4.91;73.44
6343;BME280;3204;42.698;23.298;2023-01-31T09:01:19;94670.44;;;4.93;73.12
6343;BME280;3204;42.698;23.298;2023-01-31T09:03:47;94677.66;;;4.97;72.24
6343;BME280;3204;42.698;23.298;2023-01-31T09:06:15;94686.03;;;4.96;72.42
6343;BME280;3204;42.698;23.298;2023-01-31T09:08:41;94685.97;;;5.01;72.05
6343;BME280;3204;42.698;23.298;2023-01-31T09:11:06;94680.34;;;4.97;71.96
6343;BME280;3204;42.698;23.298;2023-01-31T09:13:33;94698.38;;;4.97;71.92
6343;BME280;3204;42.698;23.298;2023-01-31T09:16:04;94682.41;;;4.77;71.55
6343;BME280;3204;42.698;23.298;2023-01-31T09:18:32;94670.28;;;4.74;72.29
6343;BME280;3204;42.698;23.298;2023-01-31T09:21:08;94677.06;;;4.67;72.28
6343;BME280;3204;42.698;23.298;2023-01-31T09:23:35;94677.63;;;4.69;72.44
6343;BME280;3204;42.698;23.298;2023-01-31T09:26:00;94675.41;;;4.76;72.38
6343;BME280;3204;42.698;23.298;2023-01-31T09:28:26;94672.63;;;4.86;72.39
6343;BME280;3204;42.698;23.298;2023-01-31T09:30:52;94676.34;;;4.95;71.28
6343;BME280;3204;42.698;23.298;2023-01-31T09:33:18;94661.84;;;4.96;71.77
6343;BME280;3204;42.698;23.298;2023-01-31T09:36:04;94656.16;;;4.97;71.58
6343;BME280;3204;42.698;23.298;2023-01-31T09:38:30;94657.97;;;5.07;71.51
6343;BME280;3204;42.698;23.298;2023-01-31T09:40:58;94651.66;;;4.93;71.89
6343;BME280;3204;42.698;23.298;2023-01-31T09:43:33;94654.28;;;4.98;71.81
6343;BME280;3204;42.698;23.298;2023-01-31T09:46:04;94640.56;;;4.99;71.92
6343;BME280;3204;42.698;23.298;2023-01-31T09:48:33;94650.47;;;5.04;72.05
6343;BME280;3204;42.698;23.298;2023-01-31T09:51:00;94642.34;;;5.09;71.09
6343;BME280;3204;42.698;23.298;2023-01-31T09:53:37;94635.91;;;5.10;71.20
6343;BME280;3204;42.698;23.298;2023-01-31T10:01:17;94640.56;;;5.28;71.36
6343;BME280;3204;42.698;23.298;2023-01-31T10:06:31;94639.09;;;5.40;70.90
6343;BME280;3204;42.698;23.298;2023-01-31T10:09:16;94626.38;;;5.51;70.70
6343;BME280;3204;42.698;23.298;2023-01-31T10:11:54;94635.16;;;5.33;70.57
6343;BME280;3204;42.698;23.298;2023-01-31T10:17:25;94635.88;;;5.15;70.22
6343;BME280;3204;42.698;23.298;2023-01-31T10:22:53;94621.75;;;5.28;70.28
6343;BME280;3204;42.698;23.298;2023-01-31T10:25:32;94623.13;;;5.25;70.03
6343;BME280;3204;42.698;23.298;2023-01-31T10:28:26;94603.47;;;5.30;70.90
6343;BME280;3204;42.698;23.298;2023-01-31T10:31:02;94602.78;;;5.43;71.13
6343;BME280;3204;42.698;23.298;2023-01-31T10:36:12;94607.97;;;5.63;69.67
6343;BME280;3204;42.698;23.298;2023-01-31T10:39:27;94619.16;;;5.70;70.23
6343;BME280;3204;42.698;23.298;2023-01-31T10:44:31;94615.72;;;5.41;69.07
6343;BME280;3204;42.698;23.298;2023-01-31T10:46:59;94601.72;;;5.44;70.35
6343;BME280;3204;42.698;23.298;2023-01-31T10:49:25;94610.22;;;5.51;70.16
6343;BME280;3204;42.698;23.298;2023-01-31T10:55:03;94627.78;;;5.43;69.12
6343;BME280;3204;42.698;23.298;2023-01-31T10:57:32;94614.69;;;5.37;69.22
6343;BME280;3204;42.698;23.298;2023-01-31T10:59:57;94612.53;;;5.39;69.56
6343;BME280;3204;42.698;23.298;2023-01-31T11:02:25;94623.94;;;5.26;70.85
6343;BME280;3204;42.698;23.298;2023-01-31T11:04:55;94611.59;;;5.25;69.77
6343;BME280;3204;42.698;23.298;2023-01-31T11:07:21;94614.06;;;5.16;70.18
6343;BME280;3204;42.698;23.298;2023-01-31T11:09:52;94623.19;;;5.20;70.69
6343;BME280;3204;42.698;23.298;2023-01-31T11:12:37;94599.25;;;5.19;71.73
6343;BME280;3204;42.698;23.298;2023-01-31T11:15:15;94615.66;;;5.46;70.60
6343;BME280;3204;42.698;23.298;2023-01-31T11:17:42;94615.31;;;5.52;70.83
6343;BME280;3204;42.698;23.298;2023-01-31T11:20:23;94617.78;;;5.49;70.36
6343;BME280;3204;42.698;23.298;2023-01-31T11:22:50;94618.47;;;5.36;70.87
6343;BME280;3204;42.698;23.298;2023-01-31T11:25:21;94633.50;;;5.37;70.60
6343;BME280;3204;42.698;23.298;2023-01-31T11:27:48;94619.88;;;5.00;70.87
6343;BME280;3204;42.698;23.298;2023-01-31T11:32:44;94629.09;;;4.89;71.85
6343;BME280;3204;42.698;23.298;2023-01-31T11:37:49;94626.69;;;4.54;73.39
6343;BME280;3204;42.698;23.298;2023-01-31T11:42:53;94631.22;;;4.58;73.68
6343;BME280;3204;42.698;23.298;2023-01-31T11:45:21;94620.19;;;4.60;73.85
6343;BME280;3204;42.698;23.298;2023-01-31T11:47:53;94626.69;;;4.54;74.41
6343;BME280;3204;42.698;23.298;2023-01-31T11:52:55;94624.59;;;4.46;75.55
6343;BME280;3204;42.698;23.298;2023-01-31T11:55:22;94626.81;;;4.34;75.84
6343;BME280;3204;42.698;23.298;2023-01-31T11:57:53;94623.88;;;4.30;76.17
6343;BME280;3204;42.698;23.298;2023-01-31T12:00:21;94623.13;;;4.25;76.23
6343;BME280;3204;42.698;23.298;2023-01-31T12:03:12;94627.41;;;4.26;76.33
6343;BME280;3204;42.698;23.298;2023-01-31T12:05:44;94615.31;;;4.28;76.08
6343;BME280;3204;42.698;23.298;2023-01-31T12:10:54;94624.53;;;4.07;76.83
6343;BME280;3204;42.698;23.298;2023-01-31T12:13:21;94619.94;;;4.18;76.16
6343;BME280;3204;42.698;23.298;2023-01-31T12:15:51;94627.75;;;4.14;76.69
6343;BME280;3204;42.698;23.298;2023-01-31T12:29:18;94610.41;;;3.97;75.89
6343;BME280;3204;42.698;23.298;2023-01-31T12:32:30;94606.38;;;3.94;76.41
6343;BME280;3204;42.698;23.298;2023-01-31T12:46:13;94623.03;;;3.91;75.02
6343;BME280;3204;42.698;23.298;2023-01-31T12:59:55;94623.03;;;3.86;76.27
6343;BME280;3204;42.698;23.298;2023-01-31T13:02:37;94620.63;;;3.85;75.89
6343;BME280;3204;42.698;23.298;2023-01-31T13:05:30;94624.16;;;3.80;76.66
6343;BME280;3204;42.698;23.298;2023-01-31T13:08:02;94610.44;;;3.87;76.27
6343;BME280;3204;42.698;23.298;2023-01-31T13:12:57;94623.81;;;3.97;75.65
6343;BME280;3204;42.698;23.298;2023-01-31T13:15:54;94626.97;;;4.04;76.02
6343;BME280;3204;42.698;23.298;2023-01-31T13:18:22;94630.69;;;4.13;75.27
6343;BME280;3204;42.698;23.298;2023-01-31T13:20:57;94630.16;;;4.16;75.20
6343;BME280;3204;42.698;23.298;2023-01-31T13:23:39;94621.59;;;4.09;74.56
6343;BME280;3204;42.698;23.298;2023-01-31T13:26:13;94631.84;;;4.02;75.29
6343;BME280;3204;42.698;23.298;2023-01-31T13:29:08;94628.28;;;4.11;74.80
6343;BME280;3204;42.698;23.298;2023-01-31T13:31:43;94632.53;;;4.17;74.45
6343;BME280;3204;42.698;23.298;2023-01-31T13:34:28;94637.34;;;4.20;74.90
6343;BME280;3204;42.698;23.298;2023-01-31T13:37:00;94631.69;;;4.27;74.41
6343;BME280;3204;42.698;23.298;2023-01-31T13:39:35;94628.56;;;4.10;74.78
6343;BME280;3204;42.698;23.298;2023-01-31T13:42:02;94631.84;;;4.02;75.29
6343;BME280;3204;42.698;23.298;2023-01-31T13:44:28;94621.91;;;3.97;75.75
6343;BME280;3204;42.698;23.298;2023-01-31T13:47:01;94629.75;;;3.89;76.12
6343;BME280;3204;42.698;23.298;2023-01-31T13:49:43;94631.81;;;4.07;75.69
6343;BME280;3204;42.698;23.298;2023-01-31T13:52:38;94628.84;;;4.08;75.07
6343;BME280;3204;42.698;23.298;2023-01-31T13:55:08;94634.53;;;4.02;75.74
6343;BME280;3204;42.698;23.298;2023-01-31T13:57:40;94638.25;;;4.06;75.77
6343;BME280;3204;42.698;23.298;2023-01-31T14:03:02;94631.19;;;4.20;74.90
6343;BME280;3204;42.698;23.298;2023-01-31T14:13:44;94656.44;;;4.14;74.57
6343;BME280;3204;42.698;23.298;2023-01-31T14:16:37;94664.47;;;4.19;73.57
6343;BME280;3204;42.698;23.298;2023-01-31T14:22:12;94660.53;;;4.01;72.86
6343;BME280;3204;42.698;23.298;2023-01-31T14:27:30;94660.25;;;4.03;72.91
6343;BME280;3204;42.698;23.298;2023-01-31T14:32:46;94663.03;;;3.83;73.42
6343;BME280;3204;42.698;23.298;2023-01-31T14:37:57;94664.09;;;3.82;73.07
6343;BME280;3204;42.698;23.298;2023-01-31T14:40:30;94671.34;;;3.81;73.41
6343;BME280;3204;42.698;23.298;2023-01-31T14:43:16;94664.88;;;3.87;73.96
6343;BME280;3204;42.698;23.298;2023-01-31T14:46:10;94663.56;;;3.80;73.62
6343;BME280;3204;42.698;23.298;2023-01-31T14:54:34;94679.47;;;3.61;75.05
6343;BME280;3204;42.698;23.298;2023-01-31T14:57:19;94675.97;;;3.61;75.90
6343;BME280;3204;42.698;23.298;2023-01-31T15:00:14;94689.13;;;3.52;76.43
6343;BME280;3204;42.698;23.298;2023-01-31T15:02:59;94707.63;;;3.49;76.09
6343;BME280;3204;42.698;23.298;2023-01-31T15:16:28;94715.16;;;3.37;78.04
6343;BME280;3204;42.698;23.298;2023-01-31T15:19:19;94710.31;;;3.19;78.00
6343;BME280;3204;42.698;23.298;2023-01-31T15:21:53;94717.28;;;3.10;78.07
6343;BME280;3204;42.698;23.298;2023-01-31T15:24:24;94719.69;;;3.26;77.68
6343;BME280;3204;42.698;23.298;2023-01-31T15:26:53;94719.19;;;3.09;78.12
6343;BME280;3204;42.698;23.298;2023-01-31T15:29:24;94719.44;;;3.23;78.45
6343;BME280;3204;42.698;23.298;2023-01-31T15:31:54;94715.16;;;3.22;77.07
6343;BME280;3204;42.698;23.298;2023-01-31T15:34:28;94724.53;;;3.24;76.68
6343;BME280;3204;42.698;23.298;2023-01-31T15:37:24;94730.69;;;3.25;77.76
6343;BME280;3204;42.698;23.298;2023-01-31T15:40:00;94730.41;;;3.21;77.04
6343;BME280;3204;42.698;23.298;2023-01-31T15:42:32;94742.47;;;3.29;77.08
6343;BME280;3204;42.698;23.298;2023-01-31T15:47:42;94729.91;;;3.14;76.96
6343;BME280;3204;42.698;23.298;2023-01-31T15:50:18;94748.34;;;3.06;77.68
6343;BME280;3204;42.698;23.298;2023-01-31T15:52:44;94746.50;;;2.96;77.44
6343;BME280;3204;42.698;23.298;2023-01-31T15:55:13;94735.53;;;2.98;77.46
6343;BME280;3204;42.698;23.298;2023-01-31T15:57:51;94745.66;;;2.86;78.12
6343;BME280;3204;42.698;23.298;2023-01-31T16:00:29;94745.16;;;2.94;77.75
6343;BME280;3204;42.698;23.298;2023-01-31T16:02:55;94751.59;;;2.98;77.45
6343;BME280;3204;42.698;23.298;2023-01-31T16:05:30;94757.19;;;2.96;78.14